Time;durP1;ratioP1;P1;durP2;ratioP2;P2;SDS_P1;SDS_P2;PMS_P1;PMS_P2;Temp;Humidity;BMP_temperature;BMP_pressure;BME280_temperature;BME280_humidity;BME280_pressure;Samples;Min_cycle;Max_cycle;Signal;HPM_P1;HPM_P2
2021/12/07 00:02:02;;;;;;;9.25;3.88;;;24.80;99.90;;;;;;5103025;28;20024;-68
2021/12/07 00:04:29;;;;;;;6.15;2.72;;;24.90;99.90;;;;;;5087886;28;20037;-71
2021/12/07 00:06:56;;;;;;;5.70;3.08;;;24.90;99.90;;;;;;5102382;28;20118;-71
2021/12/07 00:09:23;;;;;;;5.97;2.92;;;25.20;99.90;;;;;;5091894;28;20028;-72
2021/12/07 00:11:51;;;;;;;6.07;2.65;;;25.40;99.90;;;;;;5100654;28;20161;-65
2021/12/07 00:14:24;;;;;;;6.35;3.20;;;25.90;99.90;;;;;;5103574;28;20024;-66
2021/12/07 00:16:55;;;;;;;4.93;2.75;;;26.20;99.90;;;;;;5098943;28;20124;-69
2021/12/07 00:19:22;;;;;;;6.97;2.95;;;26.40;99.90;;;;;;5103885;28;20036;-72
2021/12/07 00:21:50;;;;;;;5.03;2.47;;;26.40;99.90;;;;;;5106518;28;20500;-65
2021/12/07 00:24:17;;;;;;;5.43;3.22;;;26.40;99.90;;;;;;5103059;28;20027;-65
2021/12/07 00:26:44;;;;;;;4.68;2.90;;;26.30;99.90;;;;;;5105718;28;20048;-72
2021/12/07 00:29:13;;;;;;;6.30;3.28;;;26.50;99.90;;;;;;5084407;28;20012;-69
2021/12/07 00:31:51;;;;;;;9.80;6.07;;;26.60;99.90;;;;;;5102587;28;20350;-69
2021/12/07 00:37:14;;;;;;;5.40;2.83;;;27.00;99.90;;;;;;5067295;28;20089;-72
2021/12/07 00:39:41;;;;;;;3.78;2.70;;;26.90;99.90;;;;;;5101520;28;20461;-68
2021/12/07 00:42:08;;;;;;;5.63;3.08;;;27.10;99.90;;;;;;5099779;28;20023;-65
2021/12/07 00:44:35;;;;;;;6.47;2.90;;;27.30;99.90;;;;;;5098480;28;20084;-73
2021/12/07 00:47:02;;;;;;;7.78;4.05;;;27.70;99.90;;;;;;5098770;28;20031;-66
2021/12/07 00:49:29;;;;;;;4.32;3.08;;;28.00;99.90;;;;;;5102070;28;20023;-69
2021/12/07 00:51:56;;;;;;;4.65;2.60;;;28.20;99.90;;;;;;5098543;28;20020;-69
2021/12/07 00:54:23;;;;;;;6.88;2.85;;;28.30;99.90;;;;;;5099859;28;20035;-68
2021/12/07 00:56:50;;;;;;;6.53;2.72;;;28.60;99.90;;;;;;5103951;28;20031;-69
2021/12/07 00:59:17;;;;;;;5.43;2.20;;;29.00;99.00;;;;;;5104299;28;20309;-74
2021/12/07 01:01:44;;;;;;;5.43;2.97;;;29.10;98.30;;;;;;5097869;28;20036;-69
2021/12/07 01:04:11;;;;;;;4.15;2.35;;;29.30;98.50;;;;;;5102357;28;20012;-69
2021/12/07 01:06:58;;;;;;;5.88;2.13;;;29.50;98.10;;;;;;5103410;28;20018;-73
2021/12/07 01:25:59;;;;;;;3.50;2.30;;;30.70;94.80;;;;;;5100683;28;20047;-67
2021/12/07 01:28:38;;;;;;;3.20;2.25;;;30.90;93.30;;;;;;5098556;28;20123;-69
2021/12/07 01:44:21;;;;;;;3.92;2.38;;;29.80;94.90;;;;;;5101541;28;20027;-72
2021/12/07 01:50:45;;;;;;;3.72;2.05;;;30.10;95.10;;;;;;5068904;28;20032;-72
2021/12/07 02:00:21;;;;;;;3.58;2.30;;;31.00;93.10;;;;;;5102124;28;20020;-68
2021/12/07 02:02:48;;;;;;;2.45;2.00;;;31.50;92.90;;;;;;5103190;28;20530;-66
2021/12/07 02:05:15;;;;;;;3.47;2.35;;;31.90;92.10;;;;;;5107477;28;20114;-67
2021/12/07 02:07:42;;;;;;;6.18;2.35;;;32.00;91.40;;;;;;5107100;28;20026;-68
2021/12/07 02:10:17;;;;;;;2.42;2.00;;;32.20;91.20;;;;;;5105095;28;20101;-68
2021/12/07 02:12:46;;;;;;;3.47;2.30;;;32.50;90.60;;;;;;5105228;28;20024;-68
2021/12/07 02:15:20;;;;;;;5.35;2.60;;;32.60;89.60;;;;;;5102693;28;20016;-67
2021/12/07 02:17:48;;;;;;;3.85;2.03;;;32.80;90.60;;;;;;5106710;28;20111;-65
2021/12/07 02:20:17;;;;;;;3.25;1.80;;;33.10;84.50;;;;;;5102281;28;20019;-65
2021/12/07 02:22:45;;;;;;;3.70;1.80;;;33.50;82.70;;;;;;5104883;28;20416;-66
2021/12/07 02:25:15;;;;;;;3.58;2.20;;;33.30;83.50;;;;;;5105490;28;20028;-68
2021/12/07 02:27:43;;;;;;;4.47;2.35;;;33.40;84.10;;;;;;5104840;28;20329;-68
2021/12/07 02:30:16;;;;;;;3.75;2.33;;;33.60;82.30;;;;;;5105887;28;20048;-68
2021/12/07 02:32:43;;;;;;;3.20;2.05;;;33.60;79.60;;;;;;5105249;28;20020;-67
2021/12/07 02:35:13;;;;;;;3.15;1.80;;;33.60;80.10;;;;;;5105379;28;20422;-66
2021/12/07 02:37:40;;;;;;;2.35;1.85;;;33.70;79.60;;;;;;5105139;28;20023;-68
2021/12/07 02:40:09;;;;;;;3.22;1.83;;;33.60;81.20;;;;;;5105398;28;20538;-66
2021/12/07 02:42:36;;;;;;;3.08;1.90;;;33.70;77.70;;;;;;5105270;28;20051;-67
2021/12/07 02:45:05;;;;;;;4.03;1.98;;;34.10;78.40;;;;;;5103907;28;20107;-67
2021/12/07 02:47:37;;;;;;;4.70;2.10;;;34.00;81.70;;;;;;5105460;28;20011;-67
2021/12/07 02:50:06;;;;;;;5.13;1.77;;;34.00;72.70;;;;;;5107796;28;20012;-66
2021/12/07 02:52:34;;;;;;;3.00;1.90;;;34.30;70.60;;;;;;5085397;28;20024;-66
2021/12/07 02:55:02;;;;;;;2.53;1.90;;;34.50;72.50;;;;;;5109354;28;20028;-66
2021/12/07 02:57:30;;;;;;;2.40;1.85;;;34.60;73.00;;;;;;5107299;28;20022;-66
2021/12/07 03:00:03;;;;;;;3.13;1.58;;;34.60;73.00;;;;;;5107723;28;20407;-66
2021/12/07 03:02:35;;;;;;;3.67;1.77;;;34.50;70.40;;;;;;5103058;28;20028;-67
2021/12/07 03:05:10;;;;;;;;;;;34.40;69.80;;;;;;5107384;28;20032;-66
2021/12/07 03:26:26;;;;;;;1.98;1.45;;;35.50;61.60;;;;;;5104127;28;20073;-67
2021/12/07 03:28:55;;;;;;;1.88;1.40;;;35.40;60.10;;;;;;5103215;28;20070;-66
2021/12/07 03:31:25;;;;;;;3.08;1.55;;;34.90;62.30;;;;;;5105660;28;20027;-65
2021/12/07 03:33:55;;;;;;;2.58;1.55;;;34.00;64.00;;;;;;5104309;28;20042;-67
2021/12/07 03:36:22;;;;;;;2.45;2.05;;;33.10;65.30;;;;;;5106440;28;20099;-66
2021/12/07 03:38:50;;;;;;;4.30;1.85;;;32.60;66.20;;;;;;5104269;28;20027;-66
2021/12/07 03:41:17;;;;;;;1.92;1.67;;;32.40;65.90;;;;;;5087058;28;20516;-67
2021/12/07 03:43:45;;;;;;;2.13;1.85;;;31.90;67.90;;;;;;5105541;28;20357;-67
2021/12/07 03:46:13;;;;;;;2.83;1.67;;;31.50;69.60;;;;;;5106393;28;20401;-66
2021/12/07 03:48:42;;;;;;;1.92;1.48;;;31.10;69.30;;;;;;5102342;28;20020;-66
2021/12/07 03:51:09;;;;;;;2.45;1.65;;;30.60;71.30;;;;;;5107021;28;20022;-66
2021/12/07 03:53:36;;;;;;;2.42;1.67;;;30.30;73.90;;;;;;5107075;28;20045;-67
2021/12/07 03:56:04;;;;;;;3.60;1.73;;;29.90;79.40;;;;;;5108243;28;20027;-66
2021/12/07 03:58:32;;;;;;;2.40;1.73;;;29.70;79.80;;;;;;5102430;28;20047;-66
2021/12/07 04:01:00;;;;;;;2.05;1.80;;;29.40;81.70;;;;;;5107797;27;20034;-66
2021/12/07 04:03:33;;;;;;;2.85;2.22;;;29.20;82.00;;;;;;5104191;28;20035;-67
2021/12/07 04:06:04;;;;;;;7.10;2.30;;;28.90;87.40;;;;;;5106534;28;20012;-63
2021/12/07 04:08:33;;;;;;;3.88;2.03;;;28.70;92.80;;;;;;5108274;28;20026;-68
2021/12/07 04:11:00;;;;;;;4.43;1.92;;;28.30;95.30;;;;;;5105181;28;20047;-67
2021/12/07 04:13:28;;;;;;;5.57;2.33;;;27.90;99.20;;;;;;5107301;28;20069;-64
2021/12/07 04:15:57;;;;;;;7.45;2.38;;;27.10;99.90;;;;;;5081491;28;20590;-71
2021/12/07 04:18:24;;;;;;;5.25;2.70;;;25.80;99.90;;;;;;5102466;28;20024;-70
2021/12/07 04:20:51;;;;;;;6.68;2.67;;;24.30;99.90;;;;;;5106935;28;20031;-65
2021/12/07 04:23:18;;;;;;;7.30;2.88;;;23.20;99.90;;;;;;5107068;28;20023;-70
2021/12/07 04:25:45;;;;;;;6.53;3.40;;;22.80;99.90;;;;;;5104496;28;20551;-64
2021/12/07 04:28:13;;;;;;;7.07;3.58;;;22.60;99.90;;;;;;5085603;28;20127;-63
2021/12/07 04:30:42;;;;;;;5.53;3.90;;;22.60;99.90;;;;;;5102654;28;20023;-68
2021/12/07 04:33:10;;;;;;;6.85;4.95;;;22.40;99.90;;;;;;5101140;28;20032;-66
2021/12/07 04:35:40;;;;;;;4.32;2.90;;;22.40;99.90;;;;;;5100548;28;20028;-72
2021/12/07 04:38:07;;;;;;;3.92;2.75;;;22.40;99.90;;;;;;5101250;28;20020;-69
2021/12/07 04:40:34;;;;;;;4.97;3.90;;;22.40;99.90;;;;;;5105589;28;20176;-69
2021/12/07 04:43:02;;;;;;;7.28;4.05;;;22.40;99.90;;;;;;5105556;28;20028;-69
2021/12/07 04:59:05;;;;;;;3.85;2.80;;;24.70;99.90;;;;;;5103122;28;20031;-74
2021/12/07 05:01:33;;;;;;;4.97;2.70;;;25.90;99.90;;;;;;5104058;28;20039;-71
2021/12/07 05:04:10;;;;;;;3.33;1.90;;;26.60;99.90;;;;;;5103992;28;20423;-67
2021/12/07 05:06:44;;;;;;;4.28;2.22;;;26.80;99.90;;;;;;5104566;28;20031;-74
2021/12/07 05:14:33;;;;;;;2.75;1.95;;;28.90;99.90;;;;;;5105786;28;20363;-70
2021/12/07 05:17:17;;;;;;;3.60;1.95;;;29.30;99.90;;;;;;5102750;28;20169;-65
2021/12/07 05:39:03;;;;;;;2.63;1.48;;;27.30;99.90;;;;;;5109764;28;20035;-68
2021/12/07 05:41:30;;;;;;;2.83;1.42;;;27.00;99.90;;;;;;5108692;28;20613;-72
2021/12/07 05:43:57;;;;;;;2.08;1.40;;;26.90;99.90;;;;;;5106328;28;20028;-71
2021/12/07 05:46:24;;;;;;;3.92;1.70;;;26.60;99.90;;;;;;5105188;28;20599;-71
2021/12/07 05:48:51;;;;;;;4.50;1.60;;;26.40;99.90;;;;;;5102199;28;20065;-73
2021/12/07 05:51:21;;;;;;;3.20;1.80;;;26.20;99.90;;;;;;5102046;28;20024;-72
2021/12/07 05:53:48;;;;;;;2.92;1.90;;;26.00;99.90;;;;;;5104571;28;20450;-70
2021/12/07 05:56:15;;;;;;;7.32;1.95;;;25.80;99.90;;;;;;5104706;28;20035;-73
2021/12/07 05:58:42;;;;;;;3.50;1.73;;;25.70;99.90;;;;;;5103048;28;20034;-71
2021/12/07 06:01:09;;;;;;;4.18;2.17;;;25.70;99.90;;;;;;5105385;28;20081;-66
2021/12/07 06:03:36;;;;;;;3.05;1.90;;;25.50;99.90;;;;;;5107329;28;20034;-72
2021/12/07 06:06:04;;;;;;;4.75;2.30;;;25.30;99.90;;;;;;5104839;28;20012;-66
2021/12/07 06:08:32;;;;;;;4.45;2.38;;;25.10;99.90;;;;;;5102336;28;20027;-67
2021/12/07 06:10:59;;;;;;;4.70;2.42;;;24.90;99.90;;;;;;5104779;28;20016;-72
2021/12/07 06:13:26;;;;;;;4.72;2.50;;;24.80;99.90;;;;;;5101898;28;20059;-70
2021/12/07 06:15:53;;;;;;;3.65;2.20;;;24.70;99.90;;;;;;5104550;28;20363;-66
2021/12/07 06:18:20;;;;;;;5.55;2.53;;;24.50;99.90;;;;;;5104817;28;20023;-64
2021/12/07 06:20:48;;;;;;;5.85;2.22;;;24.30;99.90;;;;;;5104509;28;20051;-63
2021/12/07 06:23:17;;;;;;;6.07;2.47;;;24.20;99.90;;;;;;5105355;28;20020;-66
2021/12/07 06:25:45;;;;;;;4.65;3.85;;;24.20;99.90;;;;;;5108597;27;20028;-71
2021/12/07 06:28:13;;;;;;;9.27;4.22;;;24.10;99.90;;;;;;5107596;28;20142;-63
2021/12/07 06:30:41;;;;;;;5.05;2.75;;;24.00;99.90;;;;;;5099511;28;20050;-63
2021/12/07 06:33:08;;;;;;;4.60;2.92;;;24.00;99.90;;;;;;5102712;28;20423;-69
2021/12/07 06:35:35;;;;;;;4.53;2.60;;;23.90;99.90;;;;;;5100104;28;20028;-66
2021/12/07 06:38:02;;;;;;;3.45;2.50;;;23.90;99.90;;;;;;5102597;28;20030;-64
2021/12/07 06:40:29;;;;;;;4.88;2.67;;;23.90;99.90;;;;;;5099589;28;20020;-71
2021/12/07 06:42:59;;;;;;;3.88;2.38;;;24.10;99.90;;;;;;5100098;28;20035;-71
2021/12/07 06:45:28;;;;;;;3.63;2.45;;;24.10;99.90;;;;;;5101786;28;20627;-70
2021/12/07 06:47:56;;;;;;;3.50;2.63;;;24.20;99.90;;;;;;5100442;28;20023;-63
2021/12/07 06:50:24;;;;;;;3.78;2.20;;;24.20;99.90;;;;;;5078798;28;20039;-69
2021/12/07 06:52:52;;;;;;;3.38;2.30;;;24.20;99.90;;;;;;5101449;28;20090;-69
2021/12/07 06:55:19;;;;;;;4.88;2.63;;;24.10;99.90;;;;;;5079743;28;20440;-71
2021/12/07 06:57:46;;;;;;;2.35;2.03;;;24.00;99.90;;;;;;5102332;28;20208;-68
2021/12/07 07:00:15;;;;;;;2.88;2.00;;;23.90;99.90;;;;;;5100040;28;20272;-69
2021/12/07 07:02:42;;;;;;;5.50;2.85;;;23.70;99.90;;;;;;5100638;28;20098;-65
2021/12/07 07:05:10;;;;;;;3.90;2.22;;;23.60;99.90;;;;;;5082880;28;20055;-69
2021/12/07 07:07:38;;;;;;;3.60;2.08;;;23.70;99.90;;;;;;5102249;28;20150;-68
2021/12/07 07:10:07;;;;;;;4.18;2.80;;;23.50;99.90;;;;;;5099008;28;20015;-68
2021/12/07 07:12:34;;;;;;;6.03;2.70;;;23.50;99.90;;;;;;5100772;28;20024;-68
2021/12/07 07:15:01;;;;;;;3.63;3.33;;;23.50;99.90;;;;;;5101101;28;20024;-70
2021/12/07 07:17:28;;;;;;;9.05;8.15;;;23.50;99.90;;;;;;5103884;28;20579;-65
2021/12/07 07:19:55;;;;;;;10.85;8.25;;;23.50;99.90;;;;;;5102164;28;20019;-68
2021/12/07 07:22:22;;;;;;;9.10;6.93;;;23.40;99.90;;;;;;5099422;28;20668;-68
2021/12/07 07:24:50;;;;;;;3.95;2.92;;;23.30;99.90;;;;;;5102556;28;20024;-65
2021/12/07 07:27:17;;;;;;;4.75;3.60;;;23.30;99.90;;;;;;5101535;28;20072;-66
2021/12/07 07:29:44;;;;;;;5.82;3.92;;;23.30;99.90;;;;;;5102292;28;20027;-67
2021/12/07 07:32:11;;;;;;;6.45;4.10;;;23.50;99.90;;;;;;5082591;28;20031;-66
2021/12/07 07:34:38;;;;;;;4.43;4.03;;;23.50;99.90;;;;;;5080959;28;20463;-69
2021/12/07 07:37:05;;;;;;;5.60;3.22;;;23.70;99.90;;;;;;5097829;28;20031;-67
2021/12/07 07:39:33;;;;;;;5.75;4.05;;;23.80;99.90;;;;;;5098917;28;20032;-65
2021/12/07 07:42:00;;;;;;;4.25;3.38;;;23.90;99.90;;;;;;5101411;28;20027;-67
2021/12/07 07:44:27;;;;;;;5.95;4.15;;;23.90;99.90;;;;;;5082691;28;20020;-67
2021/12/07 07:46:54;;;;;;;8.80;5.20;;;24.30;99.90;;;;;;5101815;28;20461;-67
2021/12/07 07:49:21;;;;;;;4.88;3.03;;;24.80;99.90;;;;;;5098758;28;20107;-65
2021/12/07 07:51:48;;;;;;;8.35;3.17;;;24.80;99.90;;;;;;5083576;28;20024;-68
2021/12/07 07:54:15;;;;;;;3.85;2.60;;;24.60;99.90;;;;;;5080963;28;20054;-67
2021/12/07 07:56:42;;;;;;;5.57;2.60;;;24.30;99.90;;;;;;5100485;28;20580;-70
2021/12/07 07:59:09;;;;;;;4.85;2.75;;;24.00;99.90;;;;;;5101043;28;20020;-67
2021/12/07 08:01:36;;;;;;;4.65;2.60;;;23.90;99.90;;;;;;5084285;28;20417;-69
2021/12/07 08:04:05;;;;;;;5.63;4.35;;;23.80;99.90;;;;;;5103666;28;20610;-68
2021/12/07 08:06:34;;;;;;;4.63;3.08;;;23.50;99.90;;;;;;5100806;28;20535;-68
2021/12/07 08:09:01;;;;;;;7.57;5.20;;;23.30;99.90;;;;;;5100013;28;20801;-69
2021/12/07 08:11:28;;;;;;;4.40;4.00;;;23.40;99.90;;;;;;5102107;28;20024;-68
2021/12/07 08:13:56;;;;;;;5.28;3.25;;;23.30;99.90;;;;;;5100969;28;20028;-66
2021/12/07 08:16:23;;;;;;;5.45;3.08;;;23.00;99.90;;;;;;5100781;28;20039;-68
2021/12/07 08:18:52;;;;;;;4.47;2.95;;;22.90;99.90;;;;;;5083612;28;20510;-69
2021/12/07 08:21:20;;;;;;;3.38;2.42;;;22.80;99.90;;;;;;5098599;28;20053;-68
2021/12/07 08:23:48;;;;;;;4.78;2.88;;;22.70;99.90;;;;;;5103236;28;20028;-69
2021/12/07 08:26:18;;;;;;;3.28;2.45;;;22.70;99.90;;;;;;5101773;28;20537;-70
2021/12/07 08:28:45;;;;;;;4.05;2.50;;;22.60;99.90;;;;;;5102425;28;20040;-72
2021/12/07 08:31:13;;;;;;;5.18;2.47;;;22.50;99.90;;;;;;5102148;28;20088;-69
2021/12/07 08:33:39;;;;;;;2.97;2.40;;;22.40;99.90;;;;;;5103417;28;20049;-69
2021/12/07 08:36:06;;;;;;;3.00;2.40;;;22.40;99.90;;;;;;5096682;28;20035;-71
2021/12/07 08:38:33;;;;;;;3.83;2.40;;;22.40;99.90;;;;;;5100927;28;20020;-68
2021/12/07 08:41:01;;;;;;;3.50;2.50;;;22.30;99.90;;;;;;5095775;28;20034;-65
2021/12/07 08:43:32;;;;;;;7.32;6.05;;;22.30;99.90;;;;;;5079164;28;20032;-69
2021/12/07 08:46:01;;;;;;;8.23;6.00;;;22.10;99.90;;;;;;5096715;28;20028;-70
2021/12/07 08:48:28;;;;;;;7.38;5.97;;;22.00;99.90;;;;;;5094624;28;20019;-68
2021/12/07 08:50:56;;;;;;;6.78;5.15;;;21.90;99.90;;;;;;5097391;28;20802;-70
2021/12/07 08:53:25;;;;;;;3.63;2.67;;;21.80;99.90;;;;;;5090362;28;20043;-68
2021/12/07 09:01:26;;;;;;;4.97;2.28;;;21.70;99.90;;;;;;5099546;28;20027;-67
2021/12/07 09:03:55;;;;;;;2.33;2.13;;;21.60;99.90;;;;;;5101915;28;20028;-68
2021/12/07 09:06:23;;;;;;;7.03;2.75;;;21.60;99.90;;;;;;5098641;28;20020;-70
2021/12/07 09:08:51;;;;;;;2.80;2.22;;;21.60;99.90;;;;;;5096814;28;20016;-69
2021/12/07 09:11:21;;;;;;;4.15;2.65;;;21.40;99.90;;;;;;5095336;28;20024;-68
2021/12/07 09:13:48;;;;;;;4.38;2.13;;;21.30;99.90;;;;;;5091176;28;20055;-71
2021/12/07 09:16:19;;;;;;;4.20;2.05;;;21.40;99.90;;;;;;5101198;28;20363;-67
2021/12/07 09:18:47;;;;;;;5.38;3.42;;;21.30;99.90;;;;;;5097263;28;20081;-68
2021/12/07 09:21:16;;;;;;;3.42;2.67;;;21.20;99.90;;;;;;5095625;28;20024;-68
2021/12/07 09:23:43;;;;;;;3.30;2.33;;;21.20;99.90;;;;;;5094040;28;20043;-67
2021/12/07 09:26:11;;;;;;;6.00;4.30;;;21.20;99.90;;;;;;5097094;28;20016;-68
2021/12/07 09:28:40;;;;;;;6.10;3.42;;;21.10;99.90;;;;;;5094077;28;20044;-70
2021/12/07 09:31:09;;;;;;;5.75;4.32;;;21.00;99.90;;;;;;5083121;28;20094;-69
2021/12/07 09:33:36;;;;;;;4.10;3.67;;;21.00;99.90;;;;;;5099471;28;20687;-68
2021/12/07 09:36:05;;;;;;;3.17;2.35;;;21.20;99.90;;;;;;4745848;28;9999626;-67
2021/12/07 09:38:33;;;;;;;3.38;2.40;;;21.10;99.90;;;;;;5099749;28;20019;-67
2021/12/07 09:41:00;;;;;;;3.65;2.47;;;21.00;99.90;;;;;;5096323;28;20108;-72
2021/12/07 09:43:30;;;;;;;4.88;2.13;;;21.00;99.90;;;;;;5098487;28;20103;-68
2021/12/07 09:45:57;;;;;;;3.50;2.63;;;20.90;99.90;;;;;;5095533;28;20028;-68
2021/12/07 09:48:25;;;;;;;2.25;1.95;;;20.80;99.90;;;;;;5096042;28;20027;-67
2021/12/07 09:50:54;;;;;;;3.35;2.28;;;20.70;99.90;;;;;;5098820;28;20043;-68
2021/12/07 09:53:23;;;;;;;4.47;2.22;;;20.60;99.90;;;;;;5097524;28;20097;-72
2021/12/07 09:55:51;;;;;;;4.53;2.47;;;20.60;99.90;;;;;;5082781;28;20656;-69
2021/12/07 09:58:19;;;;;;;4.28;2.30;;;20.50;99.90;;;;;;5097866;28;20115;-72
2021/12/07 10:00:47;;;;;;;4.15;2.55;;;20.60;99.90;;;;;;5097719;28;20028;-72
2021/12/07 10:03:16;;;;;;;3.75;2.80;;;20.60;99.90;;;;;;5100655;28;20103;-66
2021/12/07 10:05:44;;;;;;;7.50;3.13;;;20.50;99.90;;;;;;5093366;28;20024;-69
2021/12/07 10:08:11;;;;;;;5.60;3.30;;;20.60;99.90;;;;;;5093754;28;20022;-68
2021/12/07 10:10:48;;;;;;;4.20;3.30;;;20.60;99.90;;;;;;5098355;28;20046;-69
2021/12/07 10:13:16;;;;;;;5.45;2.90;;;20.60;99.90;;;;;;5094500;28;20031;-72
2021/12/07 10:15:44;;;;;;;4.00;2.28;;;20.60;99.90;;;;;;5095023;28;20035;-70
2021/12/07 10:18:21;;;;;;;3.38;2.72;;;20.40;99.90;;;;;;5092937;28;20471;-66
2021/12/07 10:21:00;;;;;;;3.95;2.40;;;20.30;99.90;;;;;;5092921;28;20027;-73
2021/12/07 10:23:58;;;;;;;4.53;2.47;;;20.10;99.90;;;;;;5097816;28;20121;-72
2021/12/07 10:26:29;;;;;;;4.72;2.03;;;19.90;99.90;;;;;;5105621;22;20024;-73
2021/12/07 10:29:08;;;;;;;2.55;2.33;;;19.80;99.90;;;;;;5095965;28;20038;-74
2021/12/07 10:31:48;;;;;;;3.15;2.10;;;19.70;99.90;;;;;;5099558;28;20042;-73
2021/12/07 10:34:22;;;;;;;3.85;2.47;;;19.60;99.90;;;;;;5099717;28;20150;-72
2021/12/07 10:36:51;;;;;;;2.90;2.40;;;19.60;99.90;;;;;;5097362;28;20031;-69
2021/12/07 10:39:24;;;;;;;2.70;2.03;;;19.60;99.90;;;;;;5094440;28;20512;-69
2021/12/07 10:42:04;;;;;;;3.28;2.20;;;19.60;99.90;;;;;;5081533;28;20030;-70
2021/12/07 10:44:34;;;;;;;2.65;2.13;;;19.50;99.90;;;;;;5095449;28;20028;-70
2021/12/07 10:47:06;;;;;;;3.53;2.75;;;19.50;99.90;;;;;;5097169;28;20734;-70
2021/12/07 10:49:51;;;;;;;6.00;2.25;;;19.40;99.90;;;;;;5100602;28;20024;-70
2021/12/07 10:52:45;;;;;;;5.10;2.22;;;19.40;99.90;;;;;;5097688;28;20031;-71
2021/12/07 10:55:30;;;;;;;3.58;2.35;;;19.50;99.90;;;;;;5099916;28;20556;-70
2021/12/07 10:58:04;;;;;;;4.13;2.13;;;19.60;99.90;;;;;;5097358;28;20122;-73
2021/12/07 11:00:36;;;;;;;5.88;4.00;;;19.60;99.90;;;;;;5101888;28;20581;-71
2021/12/07 11:03:11;;;;;;;8.07;5.93;;;19.50;99.90;;;;;;5098654;28;20031;-74
2021/12/07 11:05:56;;;;;;;4.10;2.92;;;19.50;99.90;;;;;;5096701;28;20054;-73
2021/12/07 11:08:29;;;;;;;10.02;7.30;;;19.50;99.90;;;;;;5090253;28;20020;-74
2021/12/07 11:10:56;;;;;;;8.00;5.35;;;19.40;99.90;;;;;;5092464;28;20020;-73
2021/12/07 11:13:34;;;;;;;12.88;10.52;;;19.50;99.90;;;;;;5088324;28;20028;-71
2021/12/07 11:16:04;;;;;;;10.02;6.30;;;19.50;99.90;;;;;;5092751;28;20686;-73
2021/12/07 11:18:40;;;;;;;5.18;4.30;;;19.50;99.90;;;;;;5092808;28;20087;-73
2021/12/07 11:21:13;;;;;;;5.40;4.18;;;19.50;99.90;;;;;;5092131;28;20035;-69
2021/12/07 11:23:44;;;;;;;4.60;3.28;;;19.50;99.90;;;;;;5097710;28;20398;-73
2021/12/07 11:31:31;;;;;;;5.18;2.75;;;19.50;99.90;;;;;;5095117;28;20035;-71
2021/12/07 11:34:21;;;;;;;4.90;2.65;;;19.50;99.90;;;;;;5098368;28;20035;-71
2021/12/07 11:36:56;;;;;;;3.95;2.53;;;19.50;99.90;;;;;;5082971;28;20032;-72
2021/12/07 11:39:34;;;;;;;3.08;2.25;;;19.40;99.90;;;;;;5081753;28;20024;-71
2021/12/07 11:42:01;;;;;;;4.50;2.30;;;19.40;99.90;;;;;;5091587;28;20023;-69
2021/12/07 11:44:30;;;;;;;4.50;3.17;;;19.40;99.90;;;;;;5099501;28;20377;-74
2021/12/07 11:46:59;;;;;;;4.55;3.05;;;19.40;99.90;;;;;;5100720;28;20031;-70
2021/12/07 11:49:28;;;;;;;3.58;2.60;;;19.40;99.90;;;;;;5096821;28;20027;-72
2021/12/07 11:51:58;;;;;;;2.80;2.47;;;19.50;99.90;;;;;;5087419;28;20031;-70
2021/12/07 11:54:31;;;;;;;3.58;2.65;;;19.40;99.90;;;;;;5088401;28;20019;-73
2021/12/07 11:56:59;;;;;;;4.65;1.98;;;19.50;99.90;;;;;;5097204;28;20414;-71
2021/12/07 11:59:27;;;;;;;3.30;1.90;;;19.50;99.90;;;;;;5098582;28;20035;-72
2021/12/07 12:01:54;;;;;;;4.60;2.10;;;19.50;99.90;;;;;;5097829;28;20055;-70
2021/12/07 12:04:23;;;;;;;4.13;2.47;;;19.40;99.90;;;;;;5095164;28;20153;-73
2021/12/07 12:06:59;;;;;;;4.95;2.50;;;19.40;99.90;;;;;;5097165;28;20028;-70
2021/12/07 12:09:27;;;;;;;7.90;3.60;;;19.40;99.90;;;;;;5093608;28;20031;-70
2021/12/07 12:12:05;;;;;;;6.05;3.53;;;19.40;99.90;;;;;;5081557;28;20028;-72
2021/12/07 12:14:50;;;;;;;8.48;4.00;;;19.40;99.90;;;;;;5099446;28;20103;-72
2021/12/07 12:17:25;;;;;;;8.10;4.25;;;19.40;99.90;;;;;;5087445;28;20052;-72
2021/12/07 12:20:20;;;;;;;8.15;4.35;;;19.40;99.90;;;;;;5101731;28;20032;-69
2021/12/07 12:22:52;;;;;;;15.00;5.38;;;19.40;99.90;;;;;;5087023;28;20032;-72
2021/12/07 12:25:22;;;;;;;8.40;4.28;;;19.40;99.90;;;;;;5097650;28;20020;-72
2021/12/07 12:27:54;;;;;;;7.65;4.07;;;19.40;99.90;;;;;;5095562;28;20640;-73
2021/12/07 12:30:28;;;;;;;7.00;3.03;;;19.40;99.90;;;;;;5105090;28;20032;-71
2021/12/07 12:32:59;;;;;;;4.03;2.50;;;19.30;99.90;;;;;;5070677;28;20467;-68
2021/12/07 12:35:41;;;;;;;6.65;2.08;;;19.40;99.90;;;;;;5102576;28;20050;-73
2021/12/07 12:38:22;;;;;;;4.78;2.20;;;19.40;99.90;;;;;;5100768;28;20549;-70
2021/12/07 12:40:57;;;;;;;2.20;1.90;;;19.40;99.90;;;;;;5087469;28;20023;-72
2021/12/07 12:43:35;;;;;;;2.78;1.80;;;19.40;99.90;;;;;;5089246;28;20020;-70
2021/12/07 12:46:03;;;;;;;3.83;1.73;;;19.30;99.90;;;;;;5075884;28;20028;-70
2021/12/07 12:48:32;;;;;;;4.13;1.92;;;19.30;99.90;;;;;;5094078;28;20075;-70
2021/12/07 12:50:59;;;;;;;2.45;1.80;;;19.30;99.90;;;;;;5080780;28;20023;-68
2021/12/07 12:53:36;;;;;;;3.78;1.90;;;19.30;99.90;;;;;;5088932;28;20076;-72
2021/12/07 12:56:36;;;;;;;4.90;2.13;;;19.20;99.90;;;;;;5096764;28;20028;-68
2021/12/07 12:59:09;;;;;;;2.60;2.05;;;19.20;99.90;;;;;;5098690;28;20019;-72
2021/12/07 13:01:39;;;;;;;4.70;2.80;;;19.20;99.90;;;;;;5092730;28;20108;-69
2021/12/07 13:04:23;;;;;;;3.17;2.00;;;19.10;99.90;;;;;;5072366;28;20035;-71
2021/12/07 13:09:45;;;;;;;4.13;1.90;;;19.10;99.90;;;;;;5090751;28;20497;-71
2021/12/07 13:12:26;;;;;;;3.58;2.15;;;19.00;99.90;;;;;;5072561;28;20522;-68
2021/12/07 13:14:55;;;;;;;2.95;2.65;;;19.00;99.90;;;;;;5051608;28;20109;-70
2021/12/07 13:17:24;;;;;;;4.47;2.13;;;18.90;99.90;;;;;;5098678;28;20417;-73
2021/12/07 13:20:32;;;;;;;2.88;1.73;;;18.90;99.90;;;;;;5094756;28;20032;-69
2021/12/07 13:23:11;;;;;;;3.05;2.17;;;18.90;99.90;;;;;;5076541;28;20420;-72
2021/12/07 13:25:50;;;;;;;4.65;1.70;;;18.90;99.90;;;;;;5078757;28;20016;-73
2021/12/07 13:28:31;;;;;;;4.55;1.98;;;18.90;99.90;;;;;;5071377;28;20538;-69
2021/12/07 13:31:13;;;;;;;1.80;1.65;;;18.90;99.90;;;;;;5093709;28;20044;-73
2021/12/07 13:33:58;;;;;;;2.00;1.75;;;18.90;99.90;;;;;;5077658;28;20028;-70
2021/12/07 13:36:45;;;;;;;3.67;2.20;;;18.80;99.90;;;;;;5102759;28;20023;-73
2021/12/07 13:39:21;;;;;;;4.32;2.40;;;18.80;99.90;;;;;;5094356;28;20583;-69
2021/12/07 13:42:08;;;;;;;3.00;1.98;;;18.70;99.90;;;;;;5096007;28;20039;-69
2021/12/07 13:44:39;;;;;;;4.63;2.20;;;18.70;99.90;;;;;;5097691;28;20028;-69
2021/12/07 13:47:27;;;;;;;8.18;2.75;;;18.70;99.90;;;;;;5091405;28;20024;-73
2021/12/07 13:49:58;;;;;;;3.45;2.40;;;18.70;99.90;;;;;;5089590;28;20028;-72
2021/12/07 13:52:34;;;;;;;4.50;2.40;;;18.60;99.90;;;;;;5093161;28;20375;-71
2021/12/07 13:55:07;;;;;;;2.45;2.08;;;18.60;99.90;;;;;;5092777;28;20039;-70
2021/12/07 13:57:36;;;;;;;8.68;2.15;;;18.50;99.90;;;;;;5096256;28;20043;-71
2021/12/07 14:00:15;;;;;;;6.13;2.17;;;18.60;99.90;;;;;;5094196;28;20051;-72
2021/12/07 14:02:54;;;;;;;8.15;2.97;;;18.60;99.90;;;;;;5074922;28;20028;-69
2021/12/07 14:05:28;;;;;;;7.22;2.60;;;18.60;99.90;;;;;;5096496;28;20171;-68
2021/12/07 14:07:58;;;;;;;4.82;2.90;;;18.60;99.90;;;;;;5090542;28;20039;-70
2021/12/07 14:10:32;;;;;;;7.38;3.15;;;18.60;99.90;;;;;;5100414;28;20023;-70
2021/12/07 14:13:03;;;;;;;6.80;3.10;;;18.50;99.90;;;;;;5100234;28;20489;-71
2021/12/07 14:15:42;;;;;;;6.00;2.97;;;18.50;99.90;;;;;;5103004;28;20393;-70
2021/12/07 14:18:11;;;;;;;6.53;3.60;;;18.50;99.90;;;;;;5100559;28;20020;-72
2021/12/07 14:20:49;;;;;;;6.07;3.47;;;18.50;99.90;;;;;;5094149;28;20020;-68
2021/12/07 14:23:24;;;;;;;7.50;3.40;;;18.60;99.90;;;;;;5103466;28;20107;-71
2021/12/07 14:26:14;;;;;;;6.00;3.35;;;18.60;99.90;;;;;;5106788;28;20385;-70
2021/12/07 14:29:02;;;;;;;9.32;5.75;;;18.50;99.90;;;;;;5097597;28;20044;-68
2021/12/07 14:31:50;;;;;;;10.55;9.45;;;18.50;99.90;;;;;;5099214;28;20043;-68
2021/12/07 14:34:30;;;;;;;13.02;10.80;;;18.50;99.90;;;;;;5100712;28;20031;-68
2021/12/07 14:36:59;;;;;;;10.95;9.85;;;18.50;99.90;;;;;;5103179;28;20389;-71
2021/12/07 14:39:34;;;;;;;11.20;8.07;;;18.40;99.90;;;;;;5083197;28;20494;-69
2021/12/07 14:42:08;;;;;;;6.97;6.22;;;18.40;99.90;;;;;;5098434;28;20024;-71
2021/12/07 14:44:39;;;;;;;6.07;4.75;;;18.40;99.90;;;;;;5110445;28;20545;-70
2021/12/07 14:47:07;;;;;;;8.32;4.25;;;18.40;99.90;;;;;;5098148;28;20470;-67
2021/12/07 14:49:37;;;;;;;8.65;6.35;;;18.50;99.90;;;;;;5092550;28;20024;-67
2021/12/07 14:52:35;;;;;;;7.78;5.13;;;18.50;99.90;;;;;;5092725;28;20056;-71
2021/12/07 14:55:04;;;;;;;8.07;5.43;;;18.40;99.90;;;;;;5092049;28;20494;-69
2021/12/07 14:57:35;;;;;;;7.60;5.70;;;18.40;99.90;;;;;;5097644;28;20016;-69
2021/12/07 15:00:03;;;;;;;5.20;4.30;;;18.50;99.90;;;;;;5082504;28;20102;-70